createdAt,value
2022-10-09T00:01:29.071Z,54.13
2022-10-09T00:03:57.614Z,50.30
2022-10-09T00:06:27.568Z,53.22
2022-10-09T00:08:54.063Z,51.20
2022-10-09T00:11:23.521Z,50.78
2022-10-09T00:13:50.690Z,53.13
2022-10-09T00:16:18.532Z,53.33
2022-10-09T00:18:45.751Z,47.92
2022-10-09T00:21:30.666Z,50.47
2022-10-09T00:23:59.869Z,50.47
2022-10-09T00:26:27.431Z,46.60
2022-10-09T00:28:54.429Z,44.75
2022-10-09T00:31:21.154Z,45.33
2022-10-09T00:33:47.841Z,47.80
2022-10-09T00:36:20.704Z,46.08
2022-10-09T00:38:47.737Z,43.53
2022-10-09T00:41:16.416Z,45.55
2022-10-09T00:43:45.791Z,43.45
2022-10-09T00:46:50.463Z,43.45
2022-10-09T00:49:32.696Z,41.17
2022-10-09T00:52:03.136Z,41.75
2022-10-09T00:54:33.779Z,37.97
2022-10-09T00:57:00.436Z,43.05
2022-10-09T00:59:27.564Z,39.25
2022-10-09T01:01:54.178Z,37.10
2022-10-09T01:04:20.665Z,43.35
2022-10-09T01:06:58.101Z,38.28
2022-10-09T01:09:37.984Z,35.97
2022-10-09T01:12:10.104Z,36.35
2022-10-09T01:14:44.451Z,39.13
2022-10-09T01:17:17.587Z,38.28
2022-10-09T01:19:53.989Z,36.15
2022-10-09T01:22:35.320Z,35.97
2022-10-09T01:25:07.173Z,35.03
2022-10-09T01:27:36.033Z,35.17
2022-10-09T01:30:06.509Z,36.47
2022-10-09T01:32:37.976Z,38.65
2022-10-09T01:35:06.414Z,33.00
2022-10-09T01:37:35.206Z,36.00
2022-10-09T01:40:02.966Z,36.88
2022-10-09T01:42:30.120Z,36.30
2022-10-09T01:44:56.593Z,35.85
2022-10-09T01:47:23.659Z,35.72
2022-10-09T01:49:52.844Z,37.90
2022-10-09T01:52:56.080Z,32.90
2022-10-09T01:55:40.547Z,34.13
2022-10-09T01:58:33.943Z,35.10
2022-10-09T02:01:04.746Z,36.47
2022-10-09T02:03:33.454Z,37.88
2022-10-09T02:06:01.917Z,33.67
2022-10-09T02:08:29.967Z,36.03
2022-10-09T02:11:00.274Z,34.13
2022-10-09T02:13:27.484Z,34.25
2022-10-09T02:16:18.814Z,35.67
2022-10-09T02:18:48.719Z,35.00
2022-10-09T02:21:18.997Z,33.08
2022-10-09T02:23:48.590Z,33.25
2022-10-09T02:26:15.356Z,31.30
2022-10-09T02:28:45.806Z,32.80
2022-10-09T02:31:35.379Z,33.25
2022-10-09T02:34:08.891Z,35.72
2022-10-09T02:36:36.597Z,33.45
2022-10-09T02:39:05.038Z,33.97
2022-10-09T02:41:31.845Z,32.38
2022-10-09T02:43:58.468Z,32.75
2022-10-09T02:46:25.064Z,32.25
2022-10-09T02:48:51.880Z,31.73
2022-10-09T02:51:18.351Z,33.10
2022-10-09T02:53:45.844Z,32.97
2022-10-09T02:56:12.588Z,33.80
2022-10-09T02:58:40.237Z,33.33
2022-10-09T03:01:07.155Z,32.97
2022-10-09T03:03:33.803Z,34.22
2022-10-09T03:06:09.478Z,33.72
2022-10-09T03:08:37.965Z,34.13
2022-10-09T03:11:05.389Z,33.75
2022-10-09T03:13:32.452Z,34.40
2022-10-09T03:16:11.049Z,32.95
2022-10-09T03:18:38.334Z,32.47
2022-10-09T03:21:06.757Z,33.05
2022-10-09T03:23:33.411Z,35.42
2022-10-09T03:26:02.209Z,35.70
2022-10-09T03:28:29.474Z,35.88
2022-10-09T03:30:56.010Z,32.50
2022-10-09T03:33:23.185Z,31.75
2022-10-09T03:35:49.924Z,32.50
2022-10-09T03:38:16.701Z,39.03
2022-10-09T03:40:43.237Z,33.42
2022-10-09T03:43:09.770Z,34.38
2022-10-09T03:45:40.660Z,33.47
2022-10-09T03:48:08.085Z,34.47
2022-10-09T03:50:34.584Z,33.47
2022-10-09T03:53:01.004Z,33.88
2022-10-09T03:55:27.381Z,33.00
2022-10-09T03:57:53.813Z,37.33
2022-10-09T04:00:20.271Z,33.97
2022-10-09T04:02:47.190Z,35.42
2022-10-09T04:05:13.907Z,37.38
2022-10-09T04:07:40.319Z,36.38
2022-10-09T04:10:07.142Z,36.67
2022-10-09T04:12:33.563Z,38.47
2022-10-09T04:14:59.992Z,35.33
2022-10-09T04:17:26.526Z,36.88
2022-10-09T04:19:52.996Z,36.40
2022-10-09T04:22:19.395Z,40.33
2022-10-09T04:24:45.791Z,37.72
2022-10-09T04:27:12.217Z,38.30
2022-10-09T04:29:39.393Z,37.25
2022-10-09T04:32:06.221Z,37.35
2022-10-09T04:34:32.819Z,37.40
2022-10-09T04:36:59.225Z,38.92
2022-10-09T04:39:25.673Z,37.40
2022-10-09T04:41:52.129Z,36.25
2022-10-09T04:44:18.652Z,38.70
2022-10-09T04:46:45.084Z,37.97
2022-10-09T04:49:13.528Z,37.60
2022-10-09T04:51:40.260Z,38.53
2022-10-09T04:54:06.855Z,41.22
2022-10-09T04:56:33.297Z,39.95
2022-10-09T04:58:59.802Z,38.97
2022-10-09T05:01:27.925Z,38.10
2022-10-09T05:03:55.564Z,40.90
2022-10-09T05:06:22.897Z,39.85
2022-10-09T05:08:49.835Z,40.47
2022-10-09T05:11:18.935Z,38.33
2022-10-09T05:13:47.976Z,39.35
2022-10-09T05:16:17.846Z,41.33
2022-10-09T05:18:47.513Z,42.95
2022-10-09T05:21:14.879Z,40.58
2022-10-09T05:23:41.340Z,40.63
2022-10-09T05:26:11.157Z,38.75
2022-10-09T05:28:37.687Z,40.45
2022-10-09T05:31:05.229Z,44.58
2022-10-09T05:33:31.837Z,41.58
2022-10-09T05:36:02.313Z,40.42
2022-10-09T05:38:29.213Z,40.70
2022-10-09T05:41:04.710Z,39.97
2022-10-09T05:43:36.786Z,41.47
2022-10-09T05:46:23.771Z,37.83
2022-10-09T05:48:58.376Z,40.17
2022-10-09T05:51:30.310Z,42.17
2022-10-09T05:53:57.707Z,40.42
2022-10-09T05:56:38.611Z,39.25
2022-10-09T05:59:09.033Z,42.72
2022-10-09T06:01:41.135Z,39.25
2022-10-09T06:04:12.625Z,41.78
2022-10-09T06:06:40.038Z,43.30
2022-10-09T06:09:07.449Z,40.50
2022-10-09T06:11:36.899Z,43.10
2022-10-09T06:14:04.961Z,44.28
2022-10-09T06:16:34.096Z,41.22
2022-10-09T06:19:01.353Z,43.85
2022-10-09T06:21:28.225Z,41.33
2022-10-09T06:23:57.087Z,42.67
2022-10-09T06:26:24.596Z,41.40
2022-10-09T06:28:52.483Z,39.90
2022-10-09T06:31:21.462Z,45.10
2022-10-09T06:33:49.907Z,42.72
2022-10-09T06:36:25.139Z,46.80
2022-10-09T06:38:53.659Z,42.53
2022-10-09T06:41:25.327Z,43.92
2022-10-09T06:43:54.394Z,39.35
2022-10-09T06:46:23.843Z,40.38
2022-10-09T06:48:50.890Z,43.28
2022-10-09T06:51:20.673Z,44.13
2022-10-09T06:53:49.644Z,43.17
2022-10-09T06:56:17.644Z,44.40
2022-10-09T06:58:45.029Z,46.80
2022-10-09T07:01:19.242Z,45.17
2022-10-09T07:03:47.908Z,46.67
2022-10-09T07:06:19.738Z,46.33
2022-10-09T07:08:48.792Z,49.05
2022-10-09T07:11:22.733Z,48.75
2022-10-09T07:13:52.705Z,49.70
2022-10-09T07:16:21.619Z,53.65
2022-10-09T07:18:48.778Z,52.25
2022-10-09T07:21:15.414Z,75.57
2022-10-09T07:23:42.364Z,66.15
2022-10-09T07:26:18.921Z,51.75
2022-10-09T07:28:45.915Z,56.72
2022-10-09T07:31:13.254Z,55.80
2022-10-09T07:33:41.625Z,55.95
2022-10-09T07:36:09.862Z,56.38
2022-10-09T07:38:36.518Z,53.67
2022-10-09T07:41:09.100Z,56.40
2022-10-09T07:43:37.273Z,54.50
2022-10-09T07:46:04.932Z,54.25
2022-10-09T07:48:31.881Z,56.78
2022-10-09T07:50:58.354Z,56.88
2022-10-09T07:53:24.809Z,54.38
2022-10-09T07:55:51.246Z,52.40
2022-10-09T07:58:17.654Z,53.63
2022-10-09T08:00:44.342Z,52.30
2022-10-09T08:03:11.157Z,50.33
2022-10-09T08:05:37.704Z,52.28
2022-10-09T08:08:04.209Z,49.40
2022-10-09T08:10:31.760Z,46.33
2022-10-09T08:12:58.429Z,50.28
2022-10-09T08:15:25.487Z,45.83
2022-10-09T08:17:53.549Z,43.22
2022-10-09T08:20:20.064Z,45.58
2022-10-09T08:22:46.889Z,44.80
2022-10-09T08:25:13.663Z,46.83
2022-10-09T08:27:40.087Z,46.30
2022-10-09T08:30:07.178Z,46.03
2022-10-09T08:32:33.933Z,41.78
2022-10-09T08:35:00.326Z,45.65
2022-10-09T08:37:26.717Z,42.97
2022-10-09T08:39:53.139Z,44.08
2022-10-09T08:42:41.647Z,46.30
2022-10-09T08:45:15.415Z,44.78
2022-10-09T08:47:47.384Z,42.03
2022-10-09T08:50:23.993Z,42.47
2022-10-09T08:52:58.565Z,41.83
2022-10-09T08:55:35.992Z,44.20
2022-10-09T08:58:07.240Z,43.03
2022-10-09T09:00:52.069Z,44.83
2022-10-09T09:03:36.425Z,45.83
2022-10-09T09:06:02.829Z,42.13
2022-10-09T09:08:29.180Z,44.63
2022-10-09T09:11:08.080Z,42.08
2022-10-09T09:14:07.162Z,39.22
2022-10-09T09:16:55.047Z,40.30
2022-10-09T09:19:50.809Z,36.22
2022-10-09T09:22:17.641Z,42.78
2022-10-09T09:24:50.673Z,40.22
2022-10-09T09:27:20.065Z,38.97
2022-10-09T09:29:54.456Z,35.38
2022-10-09T09:32:23.211Z,38.60
2022-10-09T09:34:50.129Z,36.42
2022-10-09T09:37:17.057Z,34.38
2022-10-09T09:40:31.345Z,36.65
2022-10-09T09:42:30.564Z,34.97
2022-10-09T09:45:04.080Z,37.28
2022-10-09T09:47:36.089Z,34.78
2022-10-09T09:50:05.284Z,36.20
2022-10-09T09:52:46.022Z,34.30
2022-10-09T09:55:27.527Z,33.55
2022-10-09T09:58:02.367Z,30.92
2022-10-09T10:00:29.127Z,32.50
2022-10-09T10:03:15.678Z,31.45
2022-10-09T10:05:44.033Z,29.52
2022-10-09T10:08:27.459Z,31.55
2022-10-09T10:10:56.731Z,30.48
2022-10-09T10:13:29.580Z,32.83
2022-10-09T10:15:57.609Z,30.40
2022-10-09T10:18:28.611Z,28.25
2022-10-09T10:23:49.279Z,25.23
2022-10-09T10:26:49.485Z,21.77
2022-10-09T10:29:23.536Z,25.50
2022-10-09T10:32:12.124Z,24.73
2022-10-09T10:34:41.758Z,24.92
2022-10-09T10:37:14.420Z,24.92
2022-10-09T10:39:40.757Z,24.98
2022-10-09T10:42:21.486Z,25.38
2022-10-09T10:45:00.646Z,25.05
2022-10-09T10:47:34.405Z,28.85
2022-10-09T10:50:01.230Z,26.10
2022-10-09T10:52:30.592Z,28.48
2022-10-09T10:55:18.130Z,27.60
2022-10-09T10:58:01.966Z,27.05
2022-10-09T11:00:29.216Z,24.15
2022-10-09T11:03:07.487Z,22.88
2022-10-09T11:05:42.800Z,23.08
2022-10-09T11:08:34.061Z,23.13
2022-10-09T11:11:11.441Z,23.95
2022-10-09T11:13:50.670Z,23.40
2022-10-09T11:16:44.375Z,21.52
2022-10-09T11:19:17.997Z,17.98
2022-10-09T11:22:02.764Z,19.63
2022-10-09T11:24:44.296Z,18.45
2022-10-09T11:27:16.601Z,20.20
2022-10-09T11:29:57.189Z,19.02
2022-10-09T11:32:32.847Z,19.02
2022-10-09T11:35:06.867Z,16.85
2022-10-09T11:37:39.176Z,19.10
2022-10-09T11:40:38.408Z,18.45
2022-10-09T11:43:41.120Z,16.50
2022-10-09T11:46:15.649Z,17.13
2022-10-09T11:48:54.697Z,16.25
2022-10-09T11:51:52.187Z,16.98
2022-10-09T11:54:21.582Z,16.77
2022-10-09T11:57:05.966Z,17.65
2022-10-09T11:59:37.794Z,16.23
2022-10-09T12:02:26.754Z,16.52
2022-10-09T12:04:55.455Z,16.50
2022-10-09T12:10:33.517Z,16.13
2022-10-09T12:13:03.035Z,15.27
2022-10-09T12:15:47.807Z,14.27
2022-10-09T12:18:26.213Z,15.77
2022-10-09T12:20:54.272Z,12.85
2022-10-09T12:23:27.429Z,12.55
2022-10-09T12:25:56.216Z,12.63
2022-10-09T12:28:36.087Z,14.50
2022-10-09T12:31:05.354Z,12.88
2022-10-09T12:33:40.011Z,11.55
2022-10-09T12:36:16.348Z,9.98
2022-10-09T12:38:43.278Z,11.27
2022-10-09T12:41:21.807Z,11.00
2022-10-09T12:43:51.001Z,10.25
2022-10-09T12:46:32.948Z,11.43
2022-10-09T12:49:01.189Z,12.15
2022-10-09T12:51:31.988Z,11.90
2022-10-09T12:53:58.532Z,11.40
2022-10-09T12:56:32.917Z,10.90
2022-10-09T12:59:00.620Z,12.88
2022-10-09T13:01:27.953Z,11.48
2022-10-09T13:04:05.669Z,10.20
2022-10-09T13:06:45.803Z,10.05
2022-10-09T13:09:33.976Z,10.40
2022-10-09T13:12:06.669Z,8.60
2022-10-09T13:14:36.609Z,9.13
2022-10-09T13:17:03.342Z,9.18
2022-10-09T13:19:32.701Z,11.13
2022-10-09T13:22:06.466Z,10.63
2022-10-09T13:24:33.272Z,7.78
2022-10-09T13:26:59.747Z,6.70
2022-10-09T13:29:26.264Z,8.45
2022-10-09T13:31:52.668Z,9.35
2022-10-09T13:34:19.338Z,7.68
2022-10-09T13:36:45.916Z,9.45
2022-10-09T13:39:14.641Z,7.40
2022-10-09T13:41:42.879Z,8.98
2022-10-09T13:44:09.377Z,8.27
2022-10-09T13:46:35.808Z,7.50
2022-10-09T13:49:02.264Z,7.10
2022-10-09T13:51:29.242Z,6.65
2022-10-09T13:53:55.721Z,7.35
2022-10-09T13:56:22.131Z,7.80
2022-10-09T13:58:48.525Z,7.40
2022-10-09T14:01:15.036Z,6.55
2022-10-09T14:03:41.444Z,6.28
2022-10-09T14:06:07.930Z,6.50
2022-10-09T14:08:34.436Z,9.38
2022-10-09T14:11:01.238Z,5.80
2022-10-09T14:13:28.716Z,5.65
2022-10-09T14:15:55.482Z,5.50
2022-10-09T14:18:22.241Z,6.20
2022-10-09T14:20:48.768Z,6.20
2022-10-09T14:23:15.317Z,7.28
2022-10-09T14:25:41.901Z,5.75
2022-10-09T14:28:08.496Z,6.78
2022-10-09T14:30:35.011Z,6.07
2022-10-09T14:33:01.473Z,6.68
2022-10-09T14:35:27.899Z,6.47
2022-10-09T14:37:54.306Z,5.18
2022-10-09T14:40:20.736Z,5.70
2022-10-09T14:42:47.477Z,4.75
2022-10-09T14:45:14.076Z,5.32
2022-10-09T14:47:40.605Z,4.93
2022-10-09T14:50:07.420Z,4.53
2022-10-09T14:52:33.928Z,5.70
2022-10-09T14:55:00.476Z,4.90
2022-10-09T14:57:30.244Z,5.03
2022-10-09T14:59:59.322Z,4.55
2022-10-09T15:02:25.830Z,4.65
2022-10-09T15:04:52.293Z,14.35
2022-10-09T15:07:18.723Z,5.93
2022-10-09T15:09:45.114Z,6.07
2022-10-09T15:12:11.564Z,5.45
2022-10-09T15:14:38.000Z,5.80
2022-10-09T15:17:04.449Z,4.90
2022-10-09T15:19:30.851Z,4.95
2022-10-09T15:21:57.254Z,5.40
2022-10-09T15:24:23.653Z,5.32
2022-10-09T15:26:50.073Z,5.70
2022-10-09T15:29:16.459Z,6.18
2022-10-09T15:31:42.883Z,5.45
2022-10-09T15:34:15.415Z,5.45
2022-10-09T15:36:44.286Z,5.00
2022-10-09T15:39:10.805Z,5.28
2022-10-09T15:41:39.015Z,5.65
2022-10-09T15:44:17.301Z,5.63
2022-10-09T15:46:44.594Z,5.75
2022-10-09T15:49:11.853Z,5.88
2022-10-09T15:51:38.650Z,4.65
2022-10-09T15:54:05.584Z,5.60
2022-10-09T15:56:37.308Z,7.03
2022-10-09T15:59:06.011Z,5.57
2022-10-09T16:01:32.478Z,5.13
2022-10-09T16:03:58.876Z,6.03
2022-10-09T16:06:25.372Z,7.65
2022-10-09T16:08:55.891Z,5.22
2022-10-09T16:11:25.162Z,5.28
2022-10-09T16:13:53.764Z,5.85
2022-10-09T16:16:22.380Z,5.95
2022-10-09T16:18:49.309Z,5.90
2022-10-09T16:21:21.423Z,6.38
2022-10-09T16:23:48.409Z,7.22
2022-10-09T16:26:17.979Z,6.88
2022-10-09T16:28:46.256Z,6.22
2022-10-09T16:31:28.160Z,6.07
2022-10-09T16:33:54.861Z,7.05
2022-10-09T16:36:21.402Z,6.60
2022-10-09T16:38:47.941Z,6.00
2022-10-09T16:41:17.916Z,7.70
2022-10-09T16:43:46.565Z,6.72
2022-10-09T16:46:18.650Z,7.50
2022-10-09T16:48:45.841Z,7.50
2022-10-09T16:51:14.660Z,7.35
2022-10-09T16:53:41.883Z,7.50
2022-10-09T16:56:11.474Z,7.53
2022-10-09T16:58:38.324Z,7.90
2022-10-09T17:01:09.677Z,8.05
2022-10-09T17:03:38.276Z,7.03
2022-10-09T17:06:10.263Z,8.23
2022-10-09T17:08:37.247Z,6.78
2022-10-09T17:11:10.371Z,6.85
2022-10-09T17:13:36.907Z,7.05
2022-10-09T17:16:07.993Z,7.70
2022-10-09T17:18:35.332Z,8.48
2022-10-09T17:21:03.546Z,7.65
2022-10-09T17:23:30.117Z,7.70
2022-10-09T17:25:57.158Z,9.18
2022-10-09T17:28:25.119Z,9.07
2022-10-09T17:30:51.618Z,9.27
2022-10-09T17:33:19.855Z,8.40
2022-10-09T17:35:46.727Z,8.20
2022-10-09T17:38:13.195Z,8.25
2022-10-09T17:40:41.112Z,8.43
2022-10-09T17:43:08.653Z,7.80
2022-10-09T17:45:42.820Z,9.32
2022-10-09T17:48:09.908Z,9.65
2022-10-09T17:50:37.055Z,8.40
2022-10-09T17:53:04.253Z,9.02
2022-10-09T17:55:31.422Z,8.70
2022-10-09T17:57:58.101Z,9.02
2022-10-09T18:00:24.531Z,9.00
2022-10-09T18:02:50.957Z,8.07
2022-10-09T18:05:17.421Z,9.23
2022-10-09T18:07:43.825Z,8.77
2022-10-09T18:10:10.257Z,9.40
2022-10-09T18:12:36.653Z,10.38
2022-10-09T18:15:03.718Z,9.93
2022-10-09T18:17:33.023Z,9.38
2022-10-09T18:19:59.464Z,7.70
2022-10-09T18:22:25.857Z,11.23
2022-10-09T18:24:52.265Z,9.73
2022-10-09T18:27:18.931Z,8.52
2022-10-09T18:29:45.634Z,12.60
2022-10-09T18:32:12.038Z,11.52
2022-10-09T18:34:39.370Z,13.82
2022-10-09T18:37:06.339Z,13.60
2022-10-09T18:39:32.787Z,10.55
2022-10-09T18:42:01.681Z,9.40
2022-10-09T18:44:30.218Z,9.13
2022-10-09T18:46:59.003Z,9.57
2022-10-09T18:49:29.954Z,9.25
2022-10-09T18:54:26.176Z,10.88
2022-10-09T18:56:53.227Z,9.30
2022-10-09T18:59:21.773Z,9.48
2022-10-09T19:01:48.237Z,9.98
2022-10-09T19:04:14.850Z,10.27
2022-10-09T19:06:41.273Z,8.95
2022-10-09T19:09:07.708Z,9.18
2022-10-09T19:11:34.534Z,9.68
2022-10-09T19:14:01.881Z,9.70
2022-10-09T19:16:29.980Z,9.02
2022-10-09T19:18:56.650Z,9.00
2022-10-09T19:21:23.633Z,10.13
2022-10-09T19:23:51.478Z,9.55
2022-10-09T19:26:18.648Z,9.77
2022-10-09T19:28:45.742Z,9.82
2022-10-09T19:31:14.822Z,10.63
2022-10-09T19:33:42.382Z,11.02
2022-10-09T19:36:12.569Z,12.40
2022-10-09T19:38:39.503Z,11.23
2022-10-09T19:41:11.812Z,12.30
2022-10-09T19:43:39.008Z,10.23
2022-10-09T19:46:08.614Z,11.32
2022-10-09T19:48:36.021Z,10.25
2022-10-09T19:51:10.579Z,9.80
2022-10-09T19:53:37.429Z,10.23
2022-10-09T19:56:10.662Z,11.10
2022-10-09T19:58:42.919Z,11.15
2022-10-09T20:01:11.142Z,11.20
2022-10-09T20:03:38.675Z,11.80
2022-10-09T20:06:05.474Z,12.07
2022-10-09T20:08:31.908Z,10.35
2022-10-09T20:11:03.382Z,10.77
2022-10-09T20:13:31.052Z,10.32
2022-10-09T20:15:59.965Z,11.48
2022-10-09T20:18:27.139Z,13.05
2022-10-09T20:20:54.046Z,11.27
2022-10-09T20:23:20.672Z,9.77
2022-10-09T20:25:49.932Z,10.23
2022-10-09T20:28:16.335Z,10.48
2022-10-09T20:30:42.938Z,10.95
2022-10-09T20:33:09.584Z,10.13
2022-10-09T20:35:45.216Z,12.43
2022-10-09T20:38:11.923Z,10.85
2022-10-09T20:40:38.368Z,10.35
2022-10-09T20:43:05.046Z,11.27
2022-10-09T20:45:31.480Z,11.38
2022-10-09T20:47:57.957Z,10.90
2022-10-09T20:50:24.718Z,9.88
2022-10-09T20:52:51.435Z,11.27
2022-10-09T20:55:18.025Z,10.07
2022-10-09T20:57:44.416Z,10.43
2022-10-09T21:00:11.349Z,9.88
2022-10-09T21:02:37.730Z,9.48
2022-10-09T21:05:04.537Z,9.77
2022-10-09T21:07:31.660Z,9.68
2022-10-09T21:09:58.102Z,8.60
2022-10-09T21:12:24.512Z,8.75
2022-10-09T21:14:50.881Z,9.93
2022-10-09T21:17:17.304Z,9.15
2022-10-09T21:19:43.733Z,8.82
2022-10-09T21:22:10.141Z,9.15
2022-10-09T21:24:36.750Z,8.85
2022-10-09T21:27:03.265Z,8.85
2022-10-09T21:29:29.659Z,12.18
2022-10-09T21:31:56.046Z,8.52
2022-10-09T21:34:22.452Z,8.98
2022-10-09T21:39:39.405Z,9.68
2022-10-09T21:42:05.869Z,8.80
2022-10-09T21:44:32.832Z,8.55
2022-10-09T21:46:59.357Z,10.35
2022-10-09T21:49:27.961Z,10.07
2022-10-09T21:51:54.852Z,10.52
2022-10-09T21:54:21.638Z,9.57
2022-10-09T21:56:48.385Z,10.10
2022-10-09T21:59:14.836Z,11.23
2022-10-09T22:01:41.275Z,10.75
2022-10-09T22:04:07.962Z,11.73
2022-10-09T22:06:34.430Z,10.65
2022-10-09T22:09:00.817Z,10.32
2022-10-09T22:11:27.225Z,10.60
2022-10-09T22:13:55.666Z,10.93
2022-10-09T22:16:22.462Z,9.63
2022-10-09T22:18:48.948Z,10.43
2022-10-09T22:21:15.853Z,10.18
2022-10-09T22:23:42.936Z,9.68
2022-10-09T22:26:16.936Z,10.95
2022-10-09T22:28:44.493Z,10.77
2022-10-09T22:31:14.990Z,10.23
2022-10-09T22:33:41.840Z,12.38
2022-10-09T22:36:14.632Z,10.25
2022-10-09T22:38:42.324Z,10.38
2022-10-09T22:41:17.036Z,10.23
2022-10-09T22:43:46.165Z,11.50
2022-10-09T22:46:19.194Z,11.63
2022-10-09T22:48:46.072Z,9.85
2022-10-09T22:51:15.129Z,10.93
2022-10-09T22:53:42.427Z,10.90
2022-10-09T22:56:23.788Z,10.80
2022-10-09T22:58:52.888Z,11.27
2022-10-09T23:01:31.914Z,10.00
2022-10-09T23:04:03.565Z,11.57
2022-10-09T23:06:30.089Z,11.15
2022-10-09T23:08:56.635Z,9.60
2022-10-09T23:11:24.173Z,9.93
2022-10-09T23:13:55.561Z,10.70
2022-10-09T23:16:22.884Z,9.82
2022-10-09T23:18:49.390Z,11.15
2022-10-09T23:21:18.054Z,11.27
2022-10-09T23:23:45.413Z,9.50
2022-10-09T23:26:18.074Z,9.98
2022-10-09T23:28:52.657Z,9.90
2022-10-09T23:31:19.171Z,11.07
2022-10-09T23:33:46.040Z,9.35
2022-10-09T23:36:16.339Z,9.32
2022-10-09T23:38:42.894Z,10.45
2022-10-09T23:41:13.513Z,8.45
2022-10-09T23:43:41.064Z,9.23
2022-10-09T23:46:13.067Z,8.95
2022-10-09T23:48:39.615Z,8.95
2022-10-09T23:51:06.779Z,8.43
2022-10-09T23:53:34.022Z,8.27
2022-10-09T23:56:00.731Z,7.55
2022-10-09T23:58:27.163Z,8.38
